createdAt,value
2019-03-13T00:01:53.734Z,99.90
2019-03-13T00:04:44.571Z,99.90
2019-03-13T00:07:35.132Z,99.90
2019-03-13T00:10:26.556Z,99.90
2019-03-13T00:13:17.052Z,99.90
2019-03-13T00:16:06.753Z,99.90
2019-03-13T00:18:57.452Z,99.90
2019-03-13T00:21:47.817Z,99.90
2019-03-13T00:24:38.833Z,99.90
2019-03-13T00:27:29.193Z,99.90
2019-03-13T00:30:20.252Z,99.90
2019-03-13T00:33:10.610Z,99.90
2019-03-13T00:36:01.373Z,99.90
2019-03-13T00:38:52.533Z,99.90
2019-03-13T00:41:43.772Z,99.90
2019-03-13T00:44:34.018Z,99.90
2019-03-13T00:47:25.311Z,99.90
2019-03-13T00:50:24.972Z,99.90
2019-03-13T00:53:15.314Z,99.90
2019-03-13T00:56:05.801Z,99.90
2019-03-13T00:58:57.378Z,99.90
2019-03-13T01:02:18.851Z,99.90
2019-03-13T01:05:27.992Z,99.90
2019-03-13T01:08:18.505Z,99.90
2019-03-13T01:11:10.635Z,99.90
2019-03-13T01:14:01.393Z,99.90
2019-03-13T01:16:51.933Z,99.90
2019-03-13T01:19:42.562Z,99.90
2019-03-13T01:22:33.232Z,99.90
2019-03-13T01:25:23.232Z,99.90
2019-03-13T01:28:13.376Z,99.90
2019-03-13T01:31:15.347Z,99.90
2019-03-13T01:34:23.256Z,99.90
2019-03-13T01:37:13.435Z,99.90
2019-03-13T01:40:05.464Z,99.90
2019-03-13T01:42:56.093Z,99.90
2019-03-13T01:45:46.306Z,99.90
2019-03-13T01:48:36.355Z,99.90
2019-03-13T01:51:26.496Z,99.90
2019-03-13T01:54:17.053Z,99.90
2019-03-13T01:57:07.452Z,99.90
2019-03-13T01:59:57.632Z,99.90
2019-03-13T02:02:49.092Z,99.90
2019-03-13T02:05:40.134Z,99.90
2019-03-13T02:08:30.013Z,99.90
2019-03-13T02:11:20.748Z,99.90
2019-03-13T02:14:11.292Z,99.90
2019-03-13T02:17:01.852Z,99.90
2019-03-13T02:19:51.793Z,99.90
2019-03-13T02:22:43.007Z,99.90
2019-03-13T02:25:33.852Z,99.90
2019-03-13T02:28:24.753Z,99.90
2019-03-13T02:31:15.632Z,99.90
2019-03-13T02:34:05.533Z,99.90
2019-03-13T02:36:56.255Z,99.90
2019-03-13T02:39:46.987Z,99.90
2019-03-13T02:42:36.893Z,99.90
2019-03-13T02:45:27.895Z,99.90
2019-03-13T02:48:18.357Z,99.90
2019-03-13T02:51:13.114Z,99.90
2019-03-13T02:54:03.955Z,99.90
2019-03-13T02:56:54.158Z,99.90
2019-03-13T03:03:11.345Z,99.90
2019-03-13T03:06:01.673Z,99.90
2019-03-13T03:08:52.570Z,99.90
2019-03-13T03:11:44.373Z,99.90
2019-03-13T03:14:34.658Z,99.90
2019-03-13T03:17:25.084Z,99.90
2019-03-13T03:20:18.644Z,99.90
2019-03-13T03:23:09.205Z,99.90
2019-03-13T03:25:59.743Z,99.90
2019-03-13T03:28:50.364Z,99.90
2019-03-13T03:31:41.244Z,99.90
2019-03-13T03:34:31.503Z,99.90
2019-03-13T03:37:23.393Z,99.90
2019-03-13T03:40:14.504Z,99.90
2019-03-13T03:43:05.377Z,99.90
2019-03-13T03:45:55.264Z,99.90
2019-03-13T03:48:45.803Z,99.90
2019-03-13T03:51:40.063Z,99.90
2019-03-13T03:54:31.755Z,99.90
2019-03-13T03:57:22.004Z,99.90
2019-03-13T04:00:12.439Z,99.90
2019-03-13T04:03:03.123Z,99.90
2019-03-13T04:05:53.476Z,99.90
2019-03-13T04:08:43.944Z,99.90
2019-03-13T04:11:34.669Z,99.90
2019-03-13T04:14:24.584Z,99.90
2019-03-13T04:17:14.902Z,99.90
2019-03-13T04:20:05.670Z,99.90
2019-03-13T04:22:56.205Z,99.90
2019-03-13T04:25:46.647Z,99.70
2019-03-13T04:28:37.358Z,99.10
2019-03-13T04:31:27.345Z,99.00
2019-03-13T04:34:18.028Z,98.70
2019-03-13T04:37:08.565Z,99.00
2019-03-13T04:39:58.963Z,98.60
2019-03-13T04:42:49.683Z,99.20
2019-03-13T04:45:40.072Z,99.00
2019-03-13T04:48:30.543Z,98.60
2019-03-13T04:51:20.883Z,97.40
2019-03-13T04:54:11.303Z,98.20
2019-03-13T04:57:01.675Z,98.30
2019-03-13T04:59:51.643Z,98.30
2019-03-13T05:02:41.683Z,98.30
2019-03-13T05:05:44.736Z,97.80
2019-03-13T05:09:05.965Z,98.30
2019-03-13T05:11:57.207Z,98.40
2019-03-13T05:14:47.107Z,98.30
2019-03-13T05:17:37.384Z,98.80
2019-03-13T05:20:27.638Z,98.70
2019-03-13T05:23:18.484Z,98.80
2019-03-13T05:26:08.747Z,98.60
2019-03-13T05:29:00.244Z,98.70
2019-03-13T05:31:50.606Z,99.10
2019-03-13T05:34:41.363Z,99.80
2019-03-13T05:37:31.822Z,99.50
2019-03-13T05:40:22.384Z,99.90
2019-03-13T05:43:12.743Z,99.90
2019-03-13T05:46:02.503Z,99.90
2019-03-13T05:48:52.654Z,99.90
2019-03-13T05:51:42.823Z,99.90
2019-03-13T05:54:33.123Z,99.90
2019-03-13T05:57:24.103Z,99.90
2019-03-13T06:00:17.042Z,99.90
2019-03-13T06:03:07.543Z,99.90
2019-03-13T06:05:57.823Z,99.90
2019-03-13T06:08:48.403Z,99.90
2019-03-13T06:11:40.424Z,99.90
2019-03-13T06:14:31.023Z,99.90
2019-03-13T06:17:21.323Z,99.90
2019-03-13T06:20:11.888Z,99.90
2019-03-13T06:23:02.063Z,99.90
2019-03-13T06:25:52.568Z,99.90
2019-03-13T06:28:42.930Z,99.90
2019-03-13T06:31:33.623Z,99.90
2019-03-13T06:34:23.550Z,99.90
2019-03-13T06:37:14.307Z,99.90
2019-03-13T06:40:05.404Z,99.90
2019-03-13T06:42:55.644Z,99.90
2019-03-13T06:45:45.765Z,99.90
2019-03-13T06:48:36.042Z,99.90
2019-03-13T06:51:26.884Z,99.90
2019-03-13T06:54:17.315Z,99.90
2019-03-13T06:57:08.963Z,99.90
2019-03-13T07:00:16.906Z,99.90
2019-03-13T07:03:15.125Z,99.90
2019-03-13T07:06:30.513Z,99.90
2019-03-13T07:09:45.783Z,99.90
2019-03-13T07:12:44.337Z,99.90
2019-03-13T07:15:55.823Z,99.90
2019-03-13T07:19:04.920Z,99.90
2019-03-13T07:22:09.943Z,99.90
2019-03-13T07:25:25.925Z,99.90
2019-03-13T07:28:35.011Z,99.90
2019-03-13T07:31:46.783Z,99.90
2019-03-13T07:35:05.926Z,99.90
2019-03-13T07:38:22.293Z,99.90
2019-03-13T07:41:30.165Z,99.90
2019-03-13T07:44:37.868Z,99.90
2019-03-13T07:47:46.985Z,99.90
2019-03-13T07:51:05.104Z,99.90
2019-03-13T07:54:29.863Z,99.90
2019-03-13T07:57:39.183Z,99.90
2019-03-13T08:01:03.962Z,99.90
2019-03-13T08:04:05.049Z,99.90
2019-03-13T08:07:15.923Z,99.90
2019-03-13T08:10:32.918Z,99.90
2019-03-13T08:13:50.948Z,99.90
2019-03-13T08:20:20.779Z,99.90
2019-03-13T08:23:32.547Z,99.90
2019-03-13T08:26:42.072Z,99.90
2019-03-13T08:29:50.459Z,99.90
2019-03-13T08:33:05.624Z,99.90
2019-03-13T08:36:18.223Z,99.90
2019-03-13T08:39:33.982Z,99.90
2019-03-13T08:42:43.180Z,99.90
2019-03-13T08:45:50.553Z,99.90
2019-03-13T08:49:14.965Z,99.90
2019-03-13T08:52:22.688Z,99.90
2019-03-13T08:55:21.563Z,99.90
2019-03-13T08:58:34.287Z,99.90
2019-03-13T09:01:46.457Z,99.90
2019-03-13T09:04:50.045Z,99.90
2019-03-13T09:07:48.707Z,99.90
2019-03-13T09:10:57.825Z,99.90
2019-03-13T09:14:05.802Z,99.90
2019-03-13T09:17:16.945Z,99.90
2019-03-13T09:20:18.389Z,99.90
2019-03-13T09:23:26.170Z,99.90
2019-03-13T09:26:41.126Z,99.90
2019-03-13T09:29:51.859Z,99.90
2019-03-13T09:33:01.245Z,99.90
2019-03-13T09:36:11.643Z,99.90
2019-03-13T09:39:20.745Z,99.90
2019-03-13T09:42:33.125Z,99.90
2019-03-13T09:45:41.124Z,99.90
2019-03-13T09:48:49.511Z,99.90
2019-03-13T09:52:04.863Z,99.90
2019-03-13T09:55:14.748Z,99.90
2019-03-13T09:58:24.402Z,99.90
2019-03-13T10:01:43.143Z,99.90
2019-03-13T10:04:53.803Z,99.90
2019-03-13T10:07:55.942Z,99.90
2019-03-13T10:11:04.637Z,99.90
2019-03-13T10:14:11.924Z,99.90
2019-03-13T10:17:24.104Z,99.90
2019-03-13T10:20:51.618Z,99.90
2019-03-13T10:24:04.104Z,99.90
2019-03-13T10:27:11.463Z,99.90
2019-03-13T10:30:14.964Z,99.90
2019-03-13T10:33:12.287Z,99.90
2019-03-13T10:36:39.727Z,99.90
2019-03-13T10:39:47.303Z,99.90
2019-03-13T10:42:54.682Z,99.90
2019-03-13T10:46:01.026Z,99.90
2019-03-13T10:49:09.008Z,99.10
2019-03-13T10:52:19.269Z,99.40
2019-03-13T10:55:37.526Z,98.40
2019-03-13T10:58:49.022Z,98.40
2019-03-13T11:01:51.432Z,98.10
2019-03-13T11:05:11.470Z,98.30
2019-03-13T11:08:06.203Z,98.90
2019-03-13T11:11:03.085Z,99.10
2019-03-13T11:14:14.191Z,99.20
2019-03-13T11:17:10.966Z,99.20
2019-03-13T11:20:10.331Z,99.40
2019-03-13T11:23:09.543Z,99.60
2019-03-13T11:26:17.423Z,99.30
2019-03-13T11:29:25.830Z,98.70
2019-03-13T11:32:26.664Z,98.60
2019-03-13T11:35:27.143Z,98.70
2019-03-13T11:38:31.305Z,98.00
2019-03-13T11:41:40.037Z,98.40
2019-03-13T11:44:48.643Z,97.50
2019-03-13T11:47:56.930Z,98.40
2019-03-13T11:51:24.366Z,99.00
2019-03-13T11:54:33.683Z,98.40
2019-03-13T11:57:45.363Z,97.70
2019-03-13T12:00:45.964Z,96.10
2019-03-13T12:04:13.705Z,94.90
2019-03-13T12:07:22.501Z,95.10
2019-03-13T12:10:32.847Z,92.80
2019-03-13T12:13:41.663Z,92.80
2019-03-13T12:16:40.743Z,92.80
2019-03-13T12:19:48.562Z,92.30
2019-03-13T12:23:12.758Z,92.10
2019-03-13T12:26:11.607Z,91.50
2019-03-13T12:29:13.354Z,91.70
2019-03-13T12:32:25.482Z,91.00
2019-03-13T12:35:38.262Z,90.70
2019-03-13T12:38:35.907Z,91.30
2019-03-13T12:41:37.628Z,90.20
2019-03-13T12:44:52.903Z,90.00
2019-03-13T12:48:16.096Z,89.10
2019-03-13T12:51:04.183Z,87.60
2019-03-13T12:54:03.864Z,86.50
2019-03-13T12:57:15.343Z,85.00
2019-03-13T13:00:18.586Z,85.50
2019-03-13T13:03:46.462Z,85.30
2019-03-13T13:07:04.588Z,86.40
2019-03-13T13:10:17.063Z,88.20
2019-03-13T13:13:26.263Z,89.30
2019-03-13T13:16:27.062Z,92.30
2019-03-13T13:19:16.954Z,92.20
2019-03-13T13:22:06.949Z,91.60
2019-03-13T13:24:57.383Z,92.00
2019-03-13T13:27:49.063Z,92.90
2019-03-13T13:30:39.443Z,94.10
2019-03-13T13:33:29.390Z,96.10
2019-03-13T13:36:19.677Z,97.80
2019-03-13T13:39:10.023Z,99.10
2019-03-13T13:42:01.442Z,98.00
2019-03-13T13:44:51.644Z,99.60
2019-03-13T13:47:42.162Z,99.90
2019-03-13T13:50:32.363Z,99.90
2019-03-13T13:53:22.942Z,99.90
2019-03-13T13:56:13.332Z,99.90
2019-03-13T13:59:03.762Z,99.90
2019-03-13T14:01:53.945Z,99.90
2019-03-13T14:04:45.110Z,99.90
2019-03-13T14:07:35.442Z,99.90
2019-03-13T14:10:25.706Z,99.90
2019-03-13T14:13:16.162Z,99.90
2019-03-13T14:16:06.603Z,99.90
2019-03-13T14:18:56.952Z,99.90
2019-03-13T14:21:48.443Z,99.90
2019-03-13T14:24:41.551Z,99.90
2019-03-13T14:27:31.767Z,99.90
2019-03-13T14:30:22.050Z,99.90
2019-03-13T14:33:12.182Z,99.90
2019-03-13T14:36:02.163Z,99.90
2019-03-13T14:38:52.175Z,99.90
2019-03-13T14:41:42.346Z,99.90
2019-03-13T14:44:32.517Z,99.90
2019-03-13T14:47:22.692Z,99.90
2019-03-13T14:50:15.512Z,99.90
2019-03-13T14:53:05.903Z,99.90
2019-03-13T14:55:56.065Z,99.90
2019-03-13T14:58:46.487Z,99.90
2019-03-13T15:01:36.831Z,99.90
2019-03-13T15:04:28.303Z,99.90
2019-03-13T15:07:18.184Z,99.90
2019-03-13T15:10:09.384Z,99.90
2019-03-13T15:12:59.577Z,99.90
2019-03-13T15:15:50.284Z,99.90
2019-03-13T15:18:41.064Z,99.90
2019-03-13T15:21:31.350Z,99.90
2019-03-13T15:24:21.523Z,99.90
2019-03-13T15:27:12.184Z,99.90
2019-03-13T15:30:02.824Z,99.90
2019-03-13T15:32:54.784Z,99.90
2019-03-13T15:35:45.042Z,99.90
2019-03-13T15:38:34.963Z,99.90
2019-03-13T15:41:26.528Z,99.90
2019-03-13T15:44:16.763Z,99.90
2019-03-13T15:47:07.382Z,99.90
2019-03-13T15:49:57.926Z,99.90
2019-03-13T15:52:48.206Z,99.90
2019-03-13T15:55:40.123Z,99.90
2019-03-13T15:58:31.245Z,99.90
2019-03-13T16:01:21.683Z,99.90
2019-03-13T16:04:12.063Z,99.90
2019-03-13T16:07:02.826Z,99.90
2019-03-13T16:09:52.994Z,99.90
2019-03-13T16:12:43.923Z,99.90
2019-03-13T16:15:35.844Z,99.90
2019-03-13T16:18:26.184Z,99.90
2019-03-13T16:21:16.445Z,99.90
2019-03-13T16:24:06.485Z,99.90
2019-03-13T16:26:58.837Z,99.90
2019-03-13T16:29:49.525Z,99.90
2019-03-13T16:32:44.277Z,99.90
2019-03-13T16:35:32.590Z,99.90
2019-03-13T16:38:22.523Z,99.90
2019-03-13T16:41:12.492Z,99.90
2019-03-13T16:44:03.523Z,99.90
2019-03-13T16:46:54.193Z,99.90
2019-03-13T16:49:44.904Z,99.90
2019-03-13T16:52:35.599Z,99.90
2019-03-13T16:55:26.502Z,99.90
2019-03-13T16:58:16.764Z,99.90
2019-03-13T17:01:07.024Z,99.90
2019-03-13T17:03:57.205Z,99.90
2019-03-13T17:06:47.943Z,99.90
2019-03-13T17:09:38.038Z,99.90
2019-03-13T17:12:28.562Z,99.90
2019-03-13T17:15:20.383Z,99.90
2019-03-13T17:18:10.702Z,99.90
2019-03-13T17:21:01.203Z,99.90
2019-03-13T17:23:52.608Z,99.90
2019-03-13T17:26:43.182Z,99.90
2019-03-13T17:29:34.168Z,99.90
2019-03-13T17:32:24.157Z,99.90
2019-03-13T17:35:14.228Z,99.90
2019-03-13T17:38:04.650Z,99.90
2019-03-13T17:40:55.463Z,99.90
2019-03-13T17:43:46.063Z,99.90
2019-03-13T17:46:36.036Z,99.90
2019-03-13T17:49:26.511Z,99.90
2019-03-13T17:52:17.224Z,99.90
2019-03-13T17:55:08.456Z,99.90
2019-03-13T17:57:58.808Z,99.90
2019-03-13T18:00:51.641Z,99.90
2019-03-13T18:03:42.023Z,99.90
2019-03-13T18:06:32.283Z,99.90
2019-03-13T18:09:22.643Z,99.90
2019-03-13T18:12:13.363Z,99.90
2019-03-13T18:15:03.583Z,99.90
2019-03-13T18:17:55.471Z,99.90
2019-03-13T18:20:46.166Z,99.90
2019-03-13T18:23:37.043Z,99.90
2019-03-13T18:26:27.103Z,99.90
2019-03-13T18:29:17.522Z,99.90
2019-03-13T18:32:07.628Z,99.90
2019-03-13T18:34:57.723Z,99.90
2019-03-13T18:37:48.582Z,99.90
2019-03-13T18:40:39.364Z,99.90
2019-03-13T18:43:29.435Z,99.90
2019-03-13T18:46:19.404Z,99.90
2019-03-13T18:49:10.483Z,99.90
2019-03-13T18:52:01.364Z,99.90
2019-03-13T18:54:52.242Z,99.90
2019-03-13T18:57:42.484Z,99.90
2019-03-13T19:00:33.683Z,99.90
2019-03-13T19:03:23.943Z,99.90
2019-03-13T19:06:15.123Z,99.90
2019-03-13T19:09:05.989Z,99.90
2019-03-13T19:11:57.863Z,99.90
2019-03-13T19:14:47.791Z,99.90
2019-03-13T19:17:38.347Z,99.90
2019-03-13T19:20:28.254Z,99.90
2019-03-13T19:23:18.784Z,99.90
2019-03-13T19:26:09.363Z,99.90
2019-03-13T19:29:01.499Z,99.90
2019-03-13T19:31:52.082Z,99.90
2019-03-13T19:34:44.363Z,99.90
2019-03-13T19:37:35.143Z,99.90
2019-03-13T19:40:26.068Z,99.90
2019-03-13T19:43:16.563Z,99.90
2019-03-13T19:46:06.654Z,99.90
2019-03-13T19:48:57.382Z,99.90
2019-03-13T19:51:47.943Z,99.90
2019-03-13T19:54:38.201Z,99.90
2019-03-13T19:57:29.085Z,99.90
2019-03-13T20:00:22.983Z,99.90
2019-03-13T20:03:13.473Z,99.90
2019-03-13T20:06:05.083Z,99.90
2019-03-13T20:08:55.953Z,99.90
2019-03-13T20:11:47.033Z,99.90
2019-03-13T20:14:37.206Z,99.90
2019-03-13T20:17:27.768Z,99.90
2019-03-13T20:20:19.183Z,99.90
2019-03-13T20:23:09.970Z,99.90
2019-03-13T20:26:01.842Z,99.90
2019-03-13T20:28:53.545Z,99.90
2019-03-13T20:31:44.423Z,99.90
2019-03-13T20:34:34.632Z,99.90
2019-03-13T20:37:25.837Z,99.90
2019-03-13T20:40:20.323Z,99.90
2019-03-13T20:43:10.483Z,99.90
2019-03-13T20:46:01.023Z,99.90
2019-03-13T20:48:51.285Z,99.90
2019-03-13T20:51:41.903Z,99.90
2019-03-13T20:54:33.206Z,99.90
2019-03-13T20:57:23.923Z,99.90
2019-03-13T21:00:18.343Z,99.90
2019-03-13T21:03:08.823Z,99.90
2019-03-13T21:06:03.802Z,99.90
2019-03-13T21:08:54.552Z,99.90
2019-03-13T21:11:45.354Z,99.90
2019-03-13T21:14:36.125Z,99.90
2019-03-13T21:17:27.928Z,99.90
2019-03-13T21:20:19.303Z,99.90
2019-03-13T21:23:10.237Z,99.90
2019-03-13T21:26:00.783Z,99.90
2019-03-13T21:28:51.504Z,99.90
2019-03-13T21:31:42.390Z,99.90
2019-03-13T21:34:33.132Z,99.90
2019-03-13T21:37:24.262Z,99.90
2019-03-13T21:40:15.763Z,99.90
2019-03-13T21:43:05.762Z,99.90
2019-03-13T21:45:57.562Z,99.90
2019-03-13T21:48:48.727Z,99.90
2019-03-13T21:51:39.725Z,99.90
2019-03-13T21:54:31.659Z,99.90
2019-03-13T21:57:22.295Z,99.90
2019-03-13T22:00:19.411Z,99.90
2019-03-13T22:03:10.043Z,99.90
2019-03-13T22:06:01.043Z,99.90
2019-03-13T22:08:51.925Z,99.90
2019-03-13T22:11:42.604Z,99.90
2019-03-13T22:14:33.362Z,99.90
2019-03-13T22:17:23.604Z,99.90
2019-03-13T22:20:15.063Z,99.90
2019-03-13T22:23:05.468Z,99.90
2019-03-13T22:25:55.403Z,99.90
2019-03-13T22:28:46.164Z,99.90
2019-03-13T22:31:37.257Z,99.90
2019-03-13T22:34:28.263Z,99.90
2019-03-13T22:37:18.484Z,99.90
2019-03-13T22:40:10.323Z,99.90
2019-03-13T22:43:00.276Z,99.90
2019-03-13T22:45:50.803Z,99.90
2019-03-13T22:48:42.323Z,99.90
2019-03-13T22:51:35.769Z,99.90
2019-03-13T22:54:26.962Z,99.90
2019-03-13T22:57:17.866Z,99.90
2019-03-13T23:00:15.152Z,99.90
2019-03-13T23:03:06.964Z,99.90
2019-03-13T23:05:57.888Z,99.90
2019-03-13T23:08:47.870Z,99.90
2019-03-13T23:11:38.843Z,99.90
2019-03-13T23:14:28.643Z,99.90
2019-03-13T23:17:19.066Z,99.90
2019-03-13T23:20:09.167Z,99.90
2019-03-13T23:22:59.487Z,99.90
2019-03-13T23:25:49.793Z,99.90
2019-03-13T23:28:41.103Z,99.90
2019-03-13T23:31:31.283Z,99.90
2019-03-13T23:34:21.763Z,99.90
2019-03-13T23:37:12.097Z,99.90
2019-03-13T23:40:02.823Z,99.90
2019-03-13T23:42:52.860Z,99.90
2019-03-13T23:45:43.835Z,99.90
2019-03-13T23:48:34.642Z,99.90
2019-03-13T23:51:25.044Z,99.90
2019-03-13T23:54:15.765Z,99.90
2019-03-13T23:57:06.005Z,99.90
2019-03-13T23:59:56.533Z,99.90
